createdAt,value
2023-01-20T00:01:57.688Z,-0.50
2023-01-20T00:04:26.276Z,-0.60
2023-01-20T00:06:55.412Z,-0.60
2023-01-20T00:09:23.938Z,-0.60
2023-01-20T00:11:52.458Z,-0.60
2023-01-20T00:14:22.423Z,-0.60
2023-01-20T00:16:50.978Z,-0.60
2023-01-20T00:19:19.537Z,-0.60
2023-01-20T00:21:48.076Z,-0.60
2023-01-20T00:24:16.709Z,-0.60
2023-01-20T00:26:45.238Z,-0.60
2023-01-20T00:29:13.801Z,-0.50
2023-01-20T00:31:44.358Z,-0.50
2023-01-20T00:34:13.064Z,-0.40
2023-01-20T00:36:41.708Z,-0.40
2023-01-20T00:39:10.235Z,-0.40
2023-01-20T00:41:38.793Z,-0.40
2023-01-20T00:44:07.536Z,-0.40
2023-01-20T00:46:36.194Z,-0.40
2023-01-20T00:49:06.185Z,-0.40
2023-01-20T00:51:34.762Z,-0.40
2023-01-20T00:54:03.369Z,-0.40
2023-01-20T00:56:31.959Z,-0.40
2023-01-20T00:59:00.507Z,-0.40
2023-01-20T01:01:29.164Z,-0.40
2023-01-20T01:03:57.709Z,-0.40
2023-01-20T01:06:27.683Z,-0.40
2023-01-20T01:08:57.215Z,-0.40
2023-01-20T01:11:25.775Z,-0.40
2023-01-20T01:13:56.282Z,-0.40
2023-01-20T01:16:25.166Z,-0.40
2023-01-20T01:18:55.750Z,-0.40
2023-01-20T01:21:24.479Z,-0.40
2023-01-20T01:23:55.380Z,-0.40
2023-01-20T01:26:24.116Z,-0.40
2023-01-20T01:28:53.603Z,-0.40
2023-01-20T01:31:23.340Z,-0.40
2023-01-20T01:33:51.949Z,-0.40
2023-01-20T01:36:20.552Z,-0.40
2023-01-20T01:38:57.702Z,-0.40
2023-01-20T01:41:29.292Z,-0.40
2023-01-20T01:44:03.644Z,-0.40
2023-01-20T01:46:32.316Z,-0.50
2023-01-20T01:49:02.938Z,-0.60
2023-01-20T01:51:35.309Z,-0.60
2023-01-20T01:54:09.570Z,-0.60
2023-01-20T01:56:41.741Z,-0.60
2023-01-20T01:59:12.390Z,-0.60
2023-01-20T02:01:44.644Z,-0.60
2023-01-20T02:04:16.858Z,-0.60
2023-01-20T02:06:50.288Z,-0.60
2023-01-20T02:09:19.387Z,-0.60
2023-01-20T02:11:53.118Z,-0.50
2023-01-20T02:14:25.934Z,-0.50
2023-01-20T02:17:03.155Z,-0.50
2023-01-20T02:19:56.251Z,-0.60
2023-01-20T02:22:36.986Z,-0.60
2023-01-20T02:25:36.884Z,-0.60
2023-01-20T02:28:42.271Z,-0.60
2023-01-20T02:31:32.769Z,-0.60
2023-01-20T02:34:06.091Z,-0.60
2023-01-20T02:36:41.250Z,-0.60
2023-01-20T02:39:26.955Z,-0.50
2023-01-20T02:42:00.315Z,-0.50
2023-01-20T02:44:36.460Z,-0.50
2023-01-20T02:47:12.324Z,-0.50
2023-01-20T02:49:53.098Z,-0.50
2023-01-20T02:52:26.148Z,-0.50
2023-01-20T02:54:57.506Z,-0.50
2023-01-20T02:57:30.866Z,-0.50
2023-01-20T03:00:05.369Z,-0.50
2023-01-20T03:02:37.404Z,-0.50
2023-01-20T03:05:11.337Z,-0.50
2023-01-20T03:07:42.795Z,-0.50
2023-01-20T03:10:15.715Z,-0.50
2023-01-20T03:12:49.709Z,-0.50
2023-01-20T03:15:23.284Z,-0.50
2023-01-20T03:17:52.134Z,-0.50
2023-01-20T03:20:22.081Z,-0.50
2023-01-20T03:22:51.249Z,-0.40
2023-01-20T03:25:21.783Z,-0.40
2023-01-20T03:27:50.506Z,-0.40
2023-01-20T03:30:20.072Z,-0.30
2023-01-20T03:32:50.808Z,-0.20
2023-01-20T03:35:21.946Z,-0.20
2023-01-20T03:37:50.569Z,-0.20
2023-01-20T03:40:19.622Z,-0.10
2023-01-20T03:42:56.259Z,-0.10
2023-01-20T03:45:31.036Z,-0.10
2023-01-20T03:48:03.056Z,0.00
2023-01-20T03:50:52.194Z,0.00
2023-01-20T03:53:44.759Z,0.10
2023-01-20T03:56:19.473Z,0.20
2023-01-20T03:58:52.226Z,0.20
2023-01-20T04:01:24.112Z,0.20
2023-01-20T04:03:56.083Z,0.30
2023-01-20T04:06:29.372Z,0.30
2023-01-20T04:09:02.586Z,0.30
2023-01-20T04:11:32.069Z,0.30
2023-01-20T04:14:00.718Z,0.30
2023-01-20T04:16:29.301Z,0.40
2023-01-20T04:18:57.973Z,0.40
2023-01-20T04:21:35.297Z,0.40
2023-01-20T04:24:08.837Z,0.50
2023-01-20T04:26:37.419Z,0.50
2023-01-20T04:29:10.549Z,0.50
2023-01-20T04:31:41.583Z,0.50
2023-01-20T04:34:13.902Z,0.50
2023-01-20T04:36:44.069Z,0.60
2023-01-20T04:39:12.618Z,0.60
2023-01-20T04:41:41.417Z,0.60
2023-01-20T04:44:10.003Z,0.60
2023-01-20T04:46:38.574Z,0.50
2023-01-20T04:49:07.170Z,0.50
2023-01-20T04:51:35.942Z,0.60
2023-01-20T04:54:06.090Z,0.60
2023-01-20T04:56:34.798Z,0.60
2023-01-20T04:59:03.347Z,0.60
2023-01-20T05:01:32.044Z,0.60
2023-01-20T05:04:00.680Z,0.60
2023-01-20T05:06:29.299Z,0.60
2023-01-20T05:08:57.907Z,0.60
2023-01-20T05:11:27.968Z,0.60
2023-01-20T05:13:56.540Z,0.60
2023-01-20T05:16:26.125Z,0.60
2023-01-20T05:18:55.874Z,0.60
2023-01-20T05:21:24.489Z,0.60
2023-01-20T05:23:55.540Z,0.60
2023-01-20T05:26:24.304Z,0.60
2023-01-20T05:28:54.505Z,0.60
2023-01-20T05:31:23.359Z,0.60
2023-01-20T05:33:51.981Z,0.60
2023-01-20T05:36:20.625Z,0.60
2023-01-20T05:38:49.156Z,0.60
2023-01-20T05:41:18.361Z,0.60
2023-01-20T05:43:47.092Z,0.60
2023-01-20T05:46:17.157Z,0.60
2023-01-20T05:48:45.770Z,0.60
2023-01-20T05:51:14.350Z,0.60
2023-01-20T05:53:42.843Z,0.60
2023-01-20T05:56:12.933Z,0.60
2023-01-20T05:58:41.466Z,0.60
2023-01-20T06:01:12.309Z,0.60
2023-01-20T06:03:42.783Z,0.60
2023-01-20T06:06:15.850Z,0.50
2023-01-20T06:08:44.695Z,0.50
2023-01-20T06:11:14.958Z,0.50
2023-01-20T06:13:43.637Z,0.50
2023-01-20T06:16:12.248Z,0.50
2023-01-20T06:18:42.256Z,0.50
2023-01-20T06:21:11.104Z,0.50
2023-01-20T06:23:39.742Z,0.50
2023-01-20T06:26:10.317Z,0.40
2023-01-20T06:28:38.941Z,0.40
2023-01-20T06:31:09.892Z,0.40
2023-01-20T06:33:38.600Z,0.40
2023-01-20T06:36:09.087Z,0.40
2023-01-20T06:38:37.961Z,0.40
2023-01-20T06:41:08.105Z,0.40
2023-01-20T06:43:40.335Z,0.40
2023-01-20T06:46:12.071Z,0.40
2023-01-20T06:48:41.082Z,0.40
2023-01-20T06:51:13.232Z,0.40
2023-01-20T06:53:41.998Z,0.40
2023-01-20T06:56:12.689Z,0.40
2023-01-20T06:58:41.853Z,0.40
2023-01-20T07:01:13.280Z,0.40
2023-01-20T07:03:44.120Z,0.40
2023-01-20T07:06:19.365Z,0.40
2023-01-20T07:08:48.154Z,0.40
2023-01-20T07:11:16.813Z,0.40
2023-01-20T07:13:48.691Z,0.40
2023-01-20T07:16:17.378Z,0.40
2023-01-20T07:18:49.738Z,0.40
2023-01-20T07:21:20.198Z,0.40
2023-01-20T07:23:49.025Z,0.40
2023-01-20T07:26:19.581Z,0.50
2023-01-20T07:28:48.707Z,0.40
2023-01-20T07:31:19.153Z,0.40
2023-01-20T07:33:48.313Z,0.40
2023-01-20T07:36:19.945Z,0.40
2023-01-20T07:38:49.913Z,0.40
2023-01-20T07:41:20.174Z,0.40
2023-01-20T07:43:50.352Z,0.50
2023-01-20T07:46:19.725Z,0.50
2023-01-20T07:48:48.337Z,0.50
2023-01-20T07:51:19.308Z,0.60
2023-01-20T07:53:51.045Z,0.60
2023-01-20T07:56:21.711Z,0.60
2023-01-20T07:58:51.553Z,0.60
2023-01-20T08:01:21.707Z,0.60
2023-01-20T08:03:50.871Z,0.50
2023-01-20T08:06:22.706Z,0.50
2023-01-20T08:08:51.690Z,0.50
2023-01-20T08:11:22.255Z,0.40
2023-01-20T08:13:51.154Z,0.40
2023-01-20T08:16:20.534Z,0.40
2023-01-20T08:18:51.832Z,0.40
2023-01-20T08:21:23.879Z,0.40
2023-01-20T08:23:53.428Z,0.50
2023-01-20T08:26:24.755Z,0.50
2023-01-20T08:28:54.078Z,0.60
2023-01-20T08:31:25.410Z,0.70
2023-01-20T08:33:55.563Z,0.80
2023-01-20T08:36:28.213Z,0.80
2023-01-20T08:38:58.645Z,0.90
2023-01-20T08:41:29.713Z,0.90
2023-01-20T08:43:59.977Z,1.00
2023-01-20T08:46:29.113Z,1.10
2023-01-20T08:48:57.900Z,1.10
2023-01-20T08:51:31.883Z,1.20
2023-01-20T08:54:00.761Z,1.20
2023-01-20T08:56:29.545Z,1.30
2023-01-20T08:58:59.310Z,1.30
2023-01-20T09:01:30.296Z,1.40
2023-01-20T09:04:05.905Z,1.40
2023-01-20T09:06:42.658Z,1.50
2023-01-20T09:09:11.917Z,1.60
2023-01-20T09:11:41.113Z,1.70
2023-01-20T09:14:09.764Z,1.70
2023-01-20T09:16:38.390Z,1.70
2023-01-20T09:19:07.006Z,1.80
2023-01-20T09:21:35.827Z,1.80
2023-01-20T09:24:06.957Z,1.70
2023-01-20T09:26:41.766Z,1.70
2023-01-20T09:29:13.704Z,1.70
2023-01-20T09:31:45.615Z,1.70
2023-01-20T09:34:19.970Z,1.70
2023-01-20T09:36:52.687Z,1.70
2023-01-20T09:39:40.833Z,1.70
2023-01-20T09:42:48.522Z,1.70
2023-01-20T09:45:26.237Z,1.70
2023-01-20T09:48:03.783Z,1.80
2023-01-20T09:50:57.174Z,1.80
2023-01-20T09:53:46.330Z,1.80
2023-01-20T09:56:19.826Z,1.70
2023-01-20T09:58:54.367Z,1.70
2023-01-20T10:01:30.806Z,1.70
2023-01-20T10:04:06.878Z,1.70
2023-01-20T10:06:40.620Z,1.80
2023-01-20T10:09:18.096Z,1.80
2023-01-20T10:11:50.098Z,1.80
2023-01-20T10:14:24.747Z,1.80
2023-01-20T10:16:59.072Z,1.70
2023-01-20T10:19:35.159Z,1.70
2023-01-20T10:22:10.173Z,1.80
2023-01-20T10:24:45.130Z,1.80
2023-01-20T10:27:17.602Z,1.90
2023-01-20T10:29:53.360Z,1.90
2023-01-20T10:32:29.895Z,2.00
2023-01-20T10:35:02.521Z,2.00
2023-01-20T10:37:33.095Z,2.00
2023-01-20T10:40:15.540Z,2.00
2023-01-20T10:42:49.629Z,2.00
2023-01-20T10:45:26.595Z,2.00
2023-01-20T10:48:06.451Z,2.00
2023-01-20T10:50:52.310Z,2.00
2023-01-20T10:53:50.983Z,2.00
2023-01-20T10:56:36.403Z,2.00
2023-01-20T10:59:13.817Z,2.00
2023-01-20T11:01:44.614Z,2.10
2023-01-20T11:04:19.967Z,2.10
2023-01-20T11:06:52.319Z,2.10
2023-01-20T11:09:33.067Z,2.10
2023-01-20T11:12:03.530Z,2.10
2023-01-20T11:14:33.918Z,2.10
2023-01-20T11:17:06.573Z,2.10
2023-01-20T11:19:54.116Z,2.20
2023-01-20T11:22:31.206Z,2.10
2023-01-20T11:25:01.445Z,2.10
2023-01-20T11:27:36.589Z,2.10
2023-01-20T11:30:13.058Z,2.10
2023-01-20T11:32:42.127Z,2.10
2023-01-20T11:35:23.332Z,2.20
2023-01-20T11:37:53.121Z,2.20
2023-01-20T11:40:24.138Z,2.30
2023-01-20T11:42:53.958Z,2.20
2023-01-20T11:45:32.732Z,2.30
2023-01-20T11:48:07.674Z,2.20
2023-01-20T11:50:40.942Z,2.20
2023-01-20T11:53:15.215Z,2.20
2023-01-20T11:55:51.070Z,2.20
2023-01-20T11:58:22.715Z,2.10
2023-01-20T12:01:00.690Z,2.10
2023-01-20T12:04:13.359Z,2.10
2023-01-20T12:06:52.137Z,2.00
2023-01-20T12:09:27.331Z,2.00
2023-01-20T12:11:59.532Z,2.00
2023-01-20T12:14:33.543Z,2.00
2023-01-20T12:17:21.977Z,1.90
2023-01-20T12:20:06.383Z,1.90
2023-01-20T12:22:42.672Z,1.80
2023-01-20T12:25:20.075Z,1.80
2023-01-20T12:27:55.509Z,1.80
2023-01-20T12:30:48.879Z,1.70
2023-01-20T12:33:31.598Z,1.70
2023-01-20T12:36:21.428Z,1.70
2023-01-20T12:38:54.599Z,1.60
2023-01-20T12:41:36.144Z,1.60
2023-01-20T12:44:14.989Z,1.50
2023-01-20T12:46:51.609Z,1.60
2023-01-20T12:49:43.336Z,1.50
2023-01-20T12:52:25.202Z,1.50
2023-01-20T12:55:11.892Z,1.40
2023-01-20T12:58:00.009Z,1.40
2023-01-20T13:00:54.636Z,1.40
2023-01-20T13:03:59.820Z,1.30
2023-01-20T13:07:04.609Z,1.30
2023-01-20T13:09:49.653Z,1.30
2023-01-20T13:12:44.909Z,1.20
2023-01-20T13:15:24.606Z,1.10
2023-01-20T13:18:16.104Z,1.10
2023-01-20T13:20:47.564Z,1.00
2023-01-20T13:23:18.668Z,1.00
2023-01-20T13:25:49.483Z,1.00
2023-01-20T13:28:20.819Z,0.90
2023-01-20T13:30:51.689Z,0.90
2023-01-20T13:33:36.180Z,0.90
2023-01-20T13:36:17.739Z,0.80
2023-01-20T13:38:47.127Z,0.80
2023-01-20T13:41:49.789Z,0.80
2023-01-20T13:44:35.612Z,0.90
2023-01-20T13:47:04.589Z,0.90
2023-01-20T13:49:50.131Z,0.90
2023-01-20T13:53:04.823Z,0.90
2023-01-20T13:55:52.667Z,0.90
2023-01-20T13:58:25.164Z,0.90
2023-01-20T14:00:55.888Z,0.90
2023-01-20T14:03:28.899Z,0.80
2023-01-20T14:05:59.714Z,0.80
2023-01-20T14:08:30.488Z,0.80
2023-01-20T14:11:10.857Z,0.80
2023-01-20T14:13:41.689Z,0.80
2023-01-20T14:16:20.915Z,0.70
2023-01-20T14:18:50.118Z,0.70
2023-01-20T14:21:22.322Z,0.70
2023-01-20T14:23:51.642Z,0.80
2023-01-20T14:26:24.771Z,0.70
2023-01-20T14:28:56.501Z,0.80
2023-01-20T14:31:37.693Z,0.70
2023-01-20T14:34:27.658Z,0.80
2023-01-20T14:36:59.546Z,0.80
2023-01-20T14:39:29.928Z,0.80
2023-01-20T14:41:59.750Z,0.80
2023-01-20T14:44:30.719Z,0.80
2023-01-20T14:47:01.555Z,0.80
2023-01-20T14:49:33.789Z,0.80
2023-01-20T14:52:03.423Z,0.80
2023-01-20T14:54:36.700Z,0.80
2023-01-20T14:57:30.233Z,0.70
2023-01-20T15:00:28.073Z,0.70
2023-01-20T15:03:11.114Z,0.70
2023-01-20T15:05:42.579Z,0.70
2023-01-20T15:08:25.243Z,0.70
2023-01-20T15:11:21.977Z,0.70
2023-01-20T15:14:10.280Z,0.70
2023-01-20T15:16:50.505Z,0.80
2023-01-20T15:19:35.756Z,0.70
2023-01-20T15:22:22.454Z,0.70
2023-01-20T15:24:51.736Z,0.70
2023-01-20T15:27:33.517Z,0.70
2023-01-20T15:30:19.616Z,0.70
2023-01-20T15:32:50.568Z,0.70
2023-01-20T15:35:23.018Z,0.70
2023-01-20T15:37:52.268Z,0.70
2023-01-20T15:40:22.165Z,0.70
2023-01-20T15:42:51.467Z,0.80
2023-01-20T15:45:20.283Z,1.00
2023-01-20T15:47:50.588Z,1.10
2023-01-20T15:50:21.648Z,1.10
2023-01-20T15:52:50.658Z,1.00
2023-01-20T15:55:20.504Z,1.00
2023-01-20T15:57:51.386Z,1.10
2023-01-20T16:00:25.335Z,1.20
2023-01-20T16:02:55.419Z,1.20
2023-01-20T16:05:25.352Z,1.20
2023-01-20T16:07:53.912Z,1.20
2023-01-20T16:10:22.483Z,1.10
2023-01-20T16:12:51.087Z,1.10
2023-01-20T16:15:20.234Z,1.10
2023-01-20T16:17:51.074Z,1.10
2023-01-20T16:20:26.405Z,1.10
2023-01-20T16:22:56.803Z,1.20
2023-01-20T16:25:25.958Z,1.20
2023-01-20T16:27:54.562Z,1.20
2023-01-20T16:30:24.075Z,1.20
2023-01-20T16:32:52.645Z,1.20
2023-01-20T16:35:25.601Z,1.30
2023-01-20T16:37:54.185Z,1.30
2023-01-20T16:40:24.774Z,1.30
2023-01-20T16:42:57.055Z,1.40
2023-01-20T16:45:28.991Z,1.40
2023-01-20T16:47:58.304Z,1.40
2023-01-20T16:50:28.772Z,1.40
2023-01-20T16:52:57.447Z,1.40
2023-01-20T16:55:26.085Z,1.40
2023-01-20T16:57:54.670Z,1.30
2023-01-20T17:00:23.819Z,1.30
2023-01-20T17:02:53.107Z,1.30
2023-01-20T17:05:25.703Z,1.30
2023-01-20T17:07:57.391Z,1.20
2023-01-20T17:10:27.975Z,1.20
2023-01-20T17:12:57.350Z,1.20
2023-01-20T17:15:26.886Z,1.20
2023-01-20T17:17:58.384Z,1.20
2023-01-20T17:20:27.717Z,1.10
2023-01-20T17:22:57.858Z,1.00
2023-01-20T17:25:26.542Z,1.00
2023-01-20T17:27:55.081Z,1.00
2023-01-20T17:30:26.229Z,1.00
2023-01-20T17:32:55.090Z,0.90
2023-01-20T17:35:23.680Z,0.80
2023-01-20T17:37:52.295Z,0.80
2023-01-20T17:42:54.191Z,0.60
2023-01-20T17:45:22.754Z,0.60
2023-01-20T17:47:52.250Z,0.60
2023-01-20T17:50:20.756Z,0.60
2023-01-20T17:52:49.547Z,0.60
2023-01-20T17:55:18.515Z,0.60
2023-01-20T17:57:50.789Z,0.60
2023-01-20T18:00:20.348Z,0.60
2023-01-20T18:02:48.923Z,0.60
2023-01-20T18:05:17.561Z,0.60
2023-01-20T18:07:46.105Z,0.60
2023-01-20T18:10:14.889Z,0.50
2023-01-20T18:12:43.644Z,0.60
2023-01-20T18:15:13.798Z,0.60
2023-01-20T18:17:43.552Z,0.60
2023-01-20T18:20:12.810Z,0.50
2023-01-20T18:22:41.407Z,0.60
2023-01-20T18:25:10.872Z,0.60
2023-01-20T18:27:39.426Z,0.60
2023-01-20T18:30:09.114Z,0.60
2023-01-20T18:32:38.812Z,0.60
2023-01-20T18:35:07.763Z,0.50
2023-01-20T18:37:36.926Z,0.50
2023-01-20T18:40:06.166Z,0.50
2023-01-20T18:42:34.700Z,0.40
2023-01-20T18:45:03.279Z,0.40
2023-01-20T18:47:31.831Z,0.40
2023-01-20T18:50:01.838Z,0.40
2023-01-20T18:52:30.459Z,0.40
2023-01-20T18:54:58.968Z,0.40
2023-01-20T18:57:27.584Z,0.30
2023-01-20T18:59:56.249Z,0.30
2023-01-20T19:02:24.825Z,0.20
2023-01-20T19:04:53.544Z,0.20
2023-01-20T19:07:23.470Z,0.10
2023-01-20T19:09:52.135Z,0.00
2023-01-20T19:12:20.695Z,-0.10
2023-01-20T19:14:50.818Z,-0.10
2023-01-20T19:17:19.501Z,-0.10
2023-01-20T19:19:50.214Z,-0.10
2023-01-20T19:22:18.800Z,-0.20
2023-01-20T19:24:48.748Z,-0.20
2023-01-20T19:27:17.617Z,-0.30
2023-01-20T19:29:46.147Z,-0.30
2023-01-20T19:32:14.688Z,-0.30
2023-01-20T19:34:45.191Z,-0.30
2023-01-20T19:37:13.791Z,-0.30
2023-01-20T19:39:42.312Z,-0.30
2023-01-20T19:42:12.301Z,-0.30
2023-01-20T19:44:40.902Z,-0.30
2023-01-20T19:47:09.405Z,-0.30
2023-01-20T19:49:37.973Z,-0.20
2023-01-20T19:52:06.726Z,-0.20
2023-01-20T19:54:36.720Z,-0.20
2023-01-20T19:57:05.402Z,-0.20
2023-01-20T19:59:35.402Z,-0.20
2023-01-20T20:02:03.967Z,-0.20
2023-01-20T20:04:32.494Z,-0.20
2023-01-20T20:07:01.051Z,-0.20
2023-01-20T20:09:29.608Z,-0.20
2023-01-20T20:12:05.186Z,-0.30
2023-01-20T20:14:35.839Z,-0.30
2023-01-20T20:17:04.584Z,-0.30
2023-01-20T20:19:33.384Z,-0.20
2023-01-20T20:22:02.013Z,-0.20
2023-01-20T20:24:30.542Z,-0.30
2023-01-20T20:26:59.149Z,-0.30
2023-01-20T20:29:28.130Z,-0.30
2023-01-20T20:31:58.162Z,-0.30
2023-01-20T20:34:26.727Z,-0.40
2023-01-20T20:36:55.767Z,-0.40
2023-01-20T20:39:24.333Z,-0.40
2023-01-20T20:41:52.887Z,-0.40
2023-01-20T20:44:21.539Z,-0.40
2023-01-20T20:46:50.319Z,-0.50
2023-01-20T20:49:20.463Z,-0.40
2023-01-20T20:51:49.353Z,-0.50
2023-01-20T20:54:17.962Z,-0.50
2023-01-20T20:56:47.027Z,-0.50
2023-01-20T20:59:15.820Z,-0.50
2023-01-20T21:01:44.473Z,-0.50
2023-01-20T21:04:12.990Z,-0.60
2023-01-20T21:06:43.061Z,-0.50
2023-01-20T21:09:11.775Z,-0.50
2023-01-20T21:11:42.928Z,-0.50
2023-01-20T21:14:12.272Z,-0.50
2023-01-20T21:16:40.820Z,-0.50
2023-01-20T21:19:09.413Z,-0.50
2023-01-20T21:21:37.919Z,-0.50
2023-01-20T21:24:10.147Z,-0.60
2023-01-20T21:26:38.744Z,-0.60
2023-01-20T21:29:07.415Z,-0.60
2023-01-20T21:31:36.019Z,-0.70
2023-01-20T21:34:04.756Z,-0.70
2023-01-20T21:36:34.667Z,-0.70
2023-01-20T21:39:02.982Z,-0.70
2023-01-20T21:41:32.953Z,-0.70
2023-01-20T21:44:18.980Z,-0.70
2023-01-20T21:46:47.566Z,-0.70
2023-01-20T21:49:33.789Z,-0.70
2023-01-20T21:52:19.435Z,-0.70
2023-01-20T21:54:48.085Z,-0.70
2023-01-20T21:57:18.022Z,-0.70
2023-01-20T21:59:46.923Z,-0.70
2023-01-20T22:02:15.978Z,-0.80
2023-01-20T22:04:46.262Z,-0.80
2023-01-20T22:07:15.603Z,-0.90
2023-01-20T22:09:44.346Z,-0.90
2023-01-20T22:12:13.491Z,-0.90
2023-01-20T22:14:43.804Z,-0.90
2023-01-20T22:17:13.131Z,-1.00
2023-01-20T22:19:42.060Z,-1.00
2023-01-20T22:22:10.799Z,-1.00
2023-01-20T22:24:39.441Z,-1.10
2023-01-20T22:27:07.976Z,-1.10
2023-01-20T22:29:36.547Z,-1.10
2023-01-20T22:32:06.889Z,-1.10
2023-01-20T22:34:35.498Z,-1.20
2023-01-20T22:37:04.117Z,-1.20
2023-01-20T22:39:33.242Z,-1.30
2023-01-20T22:42:01.751Z,-1.30
2023-01-20T22:44:30.311Z,-1.30
2023-01-20T22:46:58.912Z,-1.30
2023-01-20T22:49:29.979Z,-1.30
2023-01-20T22:51:58.563Z,-1.30
2023-01-20T22:54:27.234Z,-1.30
2023-01-20T22:56:55.772Z,-1.30
2023-01-20T22:59:24.290Z,-1.30
2023-01-20T23:01:52.890Z,-1.30
2023-01-20T23:04:21.545Z,-1.20
2023-01-20T23:06:51.482Z,-1.20
2023-01-20T23:09:20.192Z,-1.20
2023-01-20T23:11:50.261Z,-1.20
2023-01-20T23:14:38.813Z,-1.20
2023-01-20T23:17:07.420Z,-1.30
2023-01-20T23:19:36.252Z,-1.30
2023-01-20T23:22:06.223Z,-1.30
2023-01-20T23:24:34.777Z,-1.30
2023-01-20T23:27:03.348Z,-1.20
2023-01-20T23:29:33.483Z,-1.20
2023-01-20T23:32:02.153Z,-1.20
2023-01-20T23:34:30.841Z,-1.20
2023-01-20T23:36:59.479Z,-1.10
2023-01-20T23:39:29.454Z,-1.10
2023-01-20T23:41:58.003Z,-1.10
2023-01-20T23:44:26.538Z,-1.00
2023-01-20T23:46:55.129Z,-1.00
2023-01-20T23:49:23.725Z,-0.90
2023-01-20T23:51:52.314Z,-0.90
2023-01-20T23:54:21.003Z,-0.90
2023-01-20T23:56:52.394Z,-0.90
2023-01-20T23:59:21.051Z,-0.90
